Time;durP1;ratioP1;P1;durP2;ratioP2;P2;SDS_P1;SDS_P2;PMS_P1;PMS_P2;Temp;Humidity;BMP_temperature;BMP_pressure;BME280_temperature;BME280_humidity;BME280_pressure;Samples;Min_cycle;Max_cycle;Signal;HPM_P1;HPM_P2
2022/04/17 00:00:56;;;;;;;23.40;13.78;;;;;;;13.96;100.00;100654.86;1684330;84;21135;-60
2022/04/17 00:03:23;;;;;;;24.95;14.20;;;;;;;13.99;100.00;100659.84;1684506;85;21593;-60
2022/04/17 00:05:54;;;;;;;24.18;14.25;;;;;;;13.96;100.00;100662.62;1684216;85;21053;-59
2022/04/17 00:08:22;;;;;;;23.85;13.38;;;;;;;14.05;100.00;100654.35;1684307;85;21112;-60
2022/04/17 00:10:50;;;;;;;26.12;14.50;;;;;;;13.92;100.00;100655.94;1684458;85;21065;-60
2022/04/17 00:13:21;;;;;;;25.00;13.78;;;;;;;13.80;100.00;100662.16;1684475;85;21089;-60
2022/04/17 00:15:49;;;;;;;21.57;13.48;;;;;;;13.58;100.00;100659.08;1684527;85;21061;-59
2022/04/17 00:18:16;;;;;;;22.67;13.13;;;;;;;13.35;100.00;100659.03;1684489;85;21057;-59
2022/04/17 00:20:45;;;;;;;20.43;12.73;;;;;;;13.77;100.00;100654.58;1684632;85;21085;-59
2022/04/17 00:23:13;;;;;;;21.73;13.13;;;;;;;13.60;100.00;100650.78;1684498;85;21057;-60
2022/04/17 00:25:42;;;;;;;18.27;12.35;;;;;;;13.67;100.00;100650.84;1685031;85;21064;-60
2022/04/17 00:28:10;;;;;;;19.77;12.33;;;;;;;13.69;100.00;100650.29;1684454;85;21104;-59
2022/04/17 00:30:38;;;;;;;18.23;12.20;;;;;;;13.88;100.00;100653.16;1684423;85;21045;-60
2022/04/17 00:33:05;;;;;;;17.32;11.65;;;;;;;13.96;100.00;100662.62;1684661;85;21044;-59
2022/04/17 00:35:34;;;;;;;15.38;11.10;;;;;;;13.97;100.00;100661.68;1684469;85;21112;-59
2022/04/17 00:38:02;;;;;;;18.10;12.33;;;;;;;13.98;100.00;100671.95;1691333;84;21092;-60
2022/04/17 00:40:29;;;;;;;16.00;11.68;;;;;;;14.01;100.00;100674.86;1700368;84;21175;-60
2022/04/17 00:42:59;;;;;;;14.75;10.32;;;;;;;13.87;100.00;100673.47;1700279;84;21084;-60
2022/04/17 00:45:27;;;;;;;13.38;10.60;;;;;;;13.73;100.00;100673.78;1700470;84;21044;-60
2022/04/17 00:47:54;;;;;;;147.37;71.25;;;;;;;13.75;100.00;100682.77;1700577;84;21095;-59
2022/04/17 00:50:23;;;;;;;166.68;81.65;;;;;;;13.34;100.00;100680.19;1700443;84;21534;-59
2022/04/17 00:52:50;;;;;;;161.28;80.57;;;;;;;12.89;100.00;100676.44;1700408;84;21533;-60
2022/04/17 00:55:18;;;;;;;168.82;81.45;;;;;;;12.69;100.00;100679.19;1700475;84;21048;-59
2022/04/17 00:57:47;;;;;;;162.05;78.28;;;;;;;12.72;100.00;100673.89;1700246;84;21064;-60
2022/04/17 01:00:14;;;;;;;158.78;74.27;;;;;;;12.60;100.00;100670.17;1700386;83;21072;-60
2022/04/17 01:02:44;;;;;;;142.28;65.92;;;;;;;12.78;100.00;100679.57;1700338;84;21060;-59
2022/04/17 01:05:12;;;;;;;141.47;65.05;;;;;;;12.70;100.00;100667.97;1700583;84;21100;-59
2022/04/17 01:07:40;;;;;;;114.17;56.00;;;;;;;12.72;100.00;100666.97;1700343;84;21024;-59
2022/04/17 01:10:11;;;;;;;112.28;53.90;;;;;;;12.75;100.00;100668.12;1700507;84;21064;-59
2022/04/17 01:12:38;;;;;;;101.55;48.33;;;;;;;12.85;100.00;100655.55;1700412;84;21056;-59
2022/04/17 01:15:09;;;;;;;83.00;43.78;;;;;;;12.97;100.00;100663.95;1700498;84;21537;-60
2022/04/17 01:17:36;;;;;;;87.82;43.65;;;;;;;13.11;100.00;100663.25;1676986;84;21064;-60
2022/04/17 01:20:06;;;;;;;61.42;34.33;;;;;;;13.29;100.00;100656.31;1700276;84;21121;-60
2022/04/17 01:22:33;;;;;;;53.65;31.52;;;;;;;13.23;100.00;100673.41;1700921;84;21012;-60
2022/04/17 01:27:48;;;;;;;49.88;28.62;;;;;;;13.09;100.00;100687.51;1700353;84;21072;-60
2022/04/17 01:30:16;;;;;;;36.08;21.65;;;;;;;12.86;100.00;100685.65;1700543;84;21103;-60
2022/04/17 01:32:44;;;;;;;16.23;11.85;;;;;;;12.85;100.00;100687.02;1700545;84;21064;-60
2022/04/17 01:35:11;;;;;;;14.10;10.15;;;;;;;12.67;100.00;100683.14;1700275;84;21127;-60
2022/04/17 01:37:40;;;;;;;11.43;8.80;;;;;;;12.85;100.00;100689.13;1700173;84;21099;-60
2022/04/17 01:40:08;;;;;;;10.30;7.75;;;;;;;12.66;100.00;100687.11;1700241;84;21115;-59
2022/04/17 01:42:35;;;;;;;9.68;7.62;;;;;;;12.22;100.00;100690.48;1700447;84;21079;-59
2022/04/17 01:45:03;;;;;;;8.35;7.15;;;;;;;12.16;100.00;100690.77;1700517;84;21100;-60
2022/04/17 01:47:31;;;;;;;9.08;7.30;;;;;;;12.16;100.00;100693.81;1700366;84;21060;-59
2022/04/17 01:49:59;;;;;;;10.08;7.85;;;;;;;12.07;100.00;100692.98;1700326;84;21490;-59
2022/04/17 01:52:27;;;;;;;8.95;6.97;;;;;;;11.78;100.00;100701.56;1700373;84;21024;-59
2022/04/17 01:54:55;;;;;;;9.00;7.53;;;;;;;11.69;100.00;100703.30;1700340;84;21502;-59
2022/04/17 01:57:23;;;;;;;8.05;6.40;;;;;;;11.70;100.00;100709.68;1700534;84;21071;-59
2022/04/17 01:59:50;;;;;;;8.80;6.90;;;;;;;11.63;100.00;100711.67;1700177;83;21076;-59
2022/04/17 02:02:17;;;;;;;9.70;7.20;;;;;;;11.55;100.00;100700.05;1700410;84;21070;-59
2022/04/17 02:04:45;;;;;;;9.73;6.40;;;;;;;11.63;100.00;100700.53;1700285;84;21100;-59
2022/04/17 02:07:14;;;;;;;7.00;6.15;;;;;;;11.61;100.00;100704.46;1700540;84;21068;-60
2022/04/17 02:09:43;;;;;;;7.67;6.33;;;;;;;11.56;100.00;100708.18;1700212;84;21132;-59
2022/04/17 02:12:10;;;;;;;7.10;6.22;;;;;;;11.37;100.00;100703.81;1700270;84;21028;-59
2022/04/17 02:14:38;;;;;;;7.17;6.10;;;;;;;11.56;100.00;100706.43;1700748;84;21478;-59
2022/04/17 02:17:05;;;;;;;7.30;5.87;;;;;;;11.53;100.00;100707.84;1700214;84;21056;-59
2022/04/17 02:19:32;;;;;;;7.12;5.70;;;;;;;11.15;100.00;100712.10;1700259;84;21088;-59
2022/04/17 02:21:59;;;;;;;6.05;5.00;;;;;;;11.25;100.00;100712.09;1700329;84;21051;-59
2022/04/17 02:24:27;;;;;;;6.50;5.05;;;;;;;11.34;100.00;100703.97;1700470;84;21516;-59
2022/04/17 02:26:55;;;;;;;7.12;4.80;;;;;;;11.29;100.00;100704.61;1700313;84;21075;-59
2022/04/17 02:29:22;;;;;;;6.85;4.65;;;;;;;11.57;100.00;100704.22;1700499;84;21068;-59
2022/04/17 02:31:50;;;;;;;7.42;5.00;;;;;;;11.59;100.00;100707.56;1700318;84;21064;-59
2022/04/17 02:34:19;;;;;;;6.33;4.70;;;;;;;11.45;100.00;100706.06;1700320;84;21068;-59
2022/04/17 02:36:46;;;;;;;6.37;4.85;;;;;;;11.47;100.00;100704.70;1700329;84;21143;-60
2022/04/17 02:39:14;;;;;;;5.70;4.50;;;;;;;11.32;100.00;100713.97;1689211;84;21104;-59
2022/04/17 02:41:41;;;;;;;8.35;4.80;;;;;;;11.32;100.00;100699.33;1684414;85;21085;-60
2022/04/17 02:44:10;;;;;;;5.83;4.17;;;;;;;11.40;100.00;100697.25;1684494;84;21085;-59
2022/04/17 02:49:23;;;;;;;5.30;4.50;;;;;;;11.29;100.00;100708.94;1684727;85;21620;-59
2022/04/17 02:51:50;;;;;;;6.42;4.90;;;;;;;11.09;100.00;100709.80;1684228;85;21029;-59
2022/04/17 02:54:18;;;;;;;6.47;5.20;;;;;;;11.10;100.00;100707.62;1684600;85;21049;-60
2022/04/17 02:56:46;;;;;;;7.50;5.00;;;;;;;10.94;100.00;100715.16;1684358;85;21049;-59
2022/04/17 02:59:15;;;;;;;6.67;4.67;;;;;;;10.75;100.00;100710.78;1684351;84;21053;-59
2022/04/17 03:07:15;;;;;;;5.97;4.90;;;;;;;11.16;100.00;100728.80;1684598;85;21057;-59
2022/04/17 03:09:42;;;;;;;6.20;4.80;;;;;;;11.06;100.00;100728.80;1684379;85;21112;-59
2022/04/17 03:12:10;;;;;;;6.55;4.83;;;;;;;11.00;100.00;100732.47;1684363;85;21049;-59
2022/04/17 03:14:39;;;;;;;6.85;4.72;;;;;;;10.56;100.00;100736.88;1684339;85;21172;-60
2022/04/17 03:17:06;;;;;;;6.10;5.08;;;;;;;10.98;100.00;100734.27;1684380;85;21128;-60
2022/04/17 03:19:35;;;;;;;6.45;5.12;;;;;;;10.99;100.00;100740.28;1684552;84;21100;-59
2022/04/17 03:22:02;;;;;;;6.45;4.87;;;;;;;11.13;100.00;100746.12;1684274;85;21529;-59
2022/04/17 03:24:34;;;;;;;6.87;5.70;;;;;;;10.97;100.00;100750.64;1684573;84;21597;-59
2022/04/17 03:27:01;;;;;;;7.62;5.85;;;;;;;11.14;100.00;100750.38;1684761;85;21506;-60
2022/04/17 03:29:28;;;;;;;7.92;5.25;;;;;;;11.24;100.00;100760.68;1684247;85;21057;-59
2022/04/17 03:31:56;;;;;;;6.78;5.05;;;;;;;10.89;100.00;100759.57;1684577;85;21053;-60
2022/04/17 03:34:26;;;;;;;7.03;5.20;;;;;;;10.83;100.00;100754.24;1684322;85;21053;-60
2022/04/17 03:36:58;;;;;;;7.10;5.50;;;;;;;10.86;100.00;100746.84;1684308;85;21081;-59
2022/04/17 03:39:25;;;;;;;9.08;5.40;;;;;;;10.73;100.00;100746.05;1694712;84;21525;-59
2022/04/17 03:41:53;;;;;;;7.00;5.17;;;;;;;10.99;100.00;100739.00;1700287;84;21616;-59
2022/04/17 03:44:21;;;;;;;6.65;5.00;;;;;;;10.78;100.00;100747.14;1700577;84;21059;-59
2022/04/17 03:46:48;;;;;;;7.70;5.35;;;;;;;10.91;100.00;100748.33;1700365;84;21577;-59
2022/04/17 03:49:15;;;;;;;7.05;5.17;;;;;;;10.93;100.00;100746.95;1700294;84;21093;-59
2022/04/17 03:51:42;;;;;;;6.67;5.10;;;;;;;11.00;100.00;100747.92;1700585;84;21052;-60
2022/04/17 03:54:09;;;;;;;7.50;5.22;;;;;;;11.11;100.00;100747.92;1700315;84;21098;-59
2022/04/17 03:56:37;;;;;;;7.65;5.53;;;;;;;11.07;100.00;100748.52;1700644;84;21060;-59
2022/04/17 03:59:04;;;;;;;6.97;5.28;;;;;;;11.08;100.00;100741.63;1700359;83;21108;-59
2022/04/17 04:01:32;;;;;;;7.10;5.03;;;;;;;11.01;100.00;100739.31;1700400;84;21072;-59
2022/04/17 04:03:59;;;;;;;6.83;5.03;;;;;;;11.39;100.00;100745.86;1700518;84;21075;-60
2022/04/17 04:06:27;;;;;;;8.90;5.50;;;;;;;11.23;100.00;100739.66;1700301;84;21060;-59
2022/04/17 04:08:54;;;;;;;7.10;5.15;;;;;;;11.29;100.00;100738.11;1700546;84;21139;-60
2022/04/17 04:11:22;;;;;;;8.95;4.97;;;;;;;11.49;100.00;100739.82;1700367;84;21099;-59
2022/04/17 04:13:49;;;;;;;6.72;5.10;;;;;;;11.17;100.00;100744.66;1700409;84;21552;-59
2022/04/17 04:16:19;;;;;;;8.18;5.33;;;;;;;11.44;100.00;100749.52;1700569;84;21069;-60
2022/04/17 04:18:47;;;;;;;7.08;5.20;;;;;;;11.31;100.00;100752.22;1700423;84;21115;-59
2022/04/17 04:21:14;;;;;;;6.95;5.05;;;;;;;11.25;100.00;100749.45;1700309;84;21104;-60
2022/04/17 04:23:43;;;;;;;8.13;5.00;;;;;;;11.20;100.00;100751.41;1700587;84;21091;-59
2022/04/17 04:26:10;;;;;;;9.95;5.25;;;;;;;11.32;100.00;100753.45;1700584;84;21524;-59
2022/04/17 04:28:39;;;;;;;8.10;5.03;;;;;;;11.26;100.00;100751.14;1700291;84;21136;-59
2022/04/17 04:31:09;;;;;;;6.97;5.28;;;;;;;11.14;100.00;100754.25;1700619;84;21107;-59
2022/04/17 04:33:41;;;;;;;6.92;4.60;;;;;;;11.54;100.00;100749.95;1700617;84;21060;-59
2022/04/17 04:36:11;;;;;;;5.80;4.62;;;;;;;11.34;100.00;100754.22;1700526;84;21064;-59
2022/04/17 04:38:40;;;;;;;6.22;4.37;;;;;;;11.41;100.00;100757.36;1696494;84;21099;-59
2022/04/17 04:41:09;;;;;;;4.95;4.05;;;;;;;11.34;100.00;100759.37;1684682;85;21049;-60
2022/04/17 04:43:36;;;;;;;6.08;4.35;;;;;;;11.57;100.00;100765.27;1684570;85;21046;-60
2022/04/17 04:46:07;;;;;;;5.70;4.37;;;;;;;11.59;100.00;100768.16;1684584;84;21053;-59
2022/04/17 04:51:28;;;;;;;6.25;4.45;;;;;;;11.67;100.00;100790.20;1684550;85;21060;-59
2022/04/17 04:53:56;;;;;;;6.65;4.67;;;;;;;11.03;100.00;100792.89;1684207;85;21052;-60
2022/04/17 04:56:26;;;;;;;6.55;4.50;;;;;;;11.15;100.00;100786.39;1698588;83;21517;-59
2022/04/17 04:58:53;;;;;;;6.35;4.53;;;;;;;11.26;100.00;100787.22;1701473;82;21495;-59
2022/04/17 05:01:21;;;;;;;6.22;4.53;;;;;;;11.26;100.00;100791.09;1692783;83;21061;-59
2022/04/17 05:03:48;;;;;;;6.80;4.75;;;;;;;11.27;100.00;100791.45;1690497;85;21093;-60
2022/04/17 05:06:16;;;;;;;7.67;5.05;;;;;;;11.27;100.00;100798.36;1690147;85;21039;-60
2022/04/17 05:08:44;;;;;;;8.38;5.20;;;;;;;11.37;100.00;100791.45;1694367;83;21018;-60
2022/04/17 05:11:11;;;;;;;8.15;4.83;;;;;;;11.50;100.00;100783.22;1701779;83;21065;-59
2022/04/17 05:13:39;;;;;;;5.15;3.98;;;;;;;11.27;100.00;100785.02;1719163;83;21049;-60
2022/04/17 05:16:07;;;;;;;5.15;4.10;;;;;;;10.97;100.00;100778.98;1718868;83;21112;-59
2022/04/17 05:18:35;;;;;;;6.33;4.20;;;;;;;11.29;100.00;100774.19;1719130;83;21088;-60
2022/04/17 05:21:05;;;;;;;6.62;4.55;;;;;;;11.36;100.00;100770.45;1718875;83;21029;-60
2022/04/17 05:23:36;;;;;;;5.85;4.20;;;;;;;11.53;100.00;100765.84;1718945;83;21041;-59
2022/04/17 05:26:05;;;;;;;7.10;4.53;;;;;;;11.51;100.00;100771.98;1717996;83;21568;-60
2022/04/17 05:28:34;;;;;;;6.53;4.72;;;;;;;11.71;100.00;100782.25;1681666;83;20988;-60
2022/04/17 05:31:02;;;;;;;7.87;4.70;;;;;;;11.56;100.00;100784.23;1683156;83;20996;-60
2022/04/17 05:33:30;;;;;;;8.45;4.67;;;;;;;11.29;100.00;100780.63;1684206;83;21326;-60
2022/04/17 05:35:57;;;;;;;9.13;5.12;;;;;;;11.56;100.00;100781.20;1680589;85;21068;-60
2022/04/17 05:38:24;;;;;;;6.75;4.75;;;;;;;11.77;100.00;100788.89;1676630;84;21123;-60
2022/04/17 05:40:53;;;;;;;7.95;5.60;;;;;;;11.83;100.00;100793.31;1704141;84;21111;-60
2022/04/17 05:43:23;;;;;;;6.92;5.35;;;;;;;11.60;100.00;100806.41;1704306;84;21574;-60
2022/04/17 05:45:50;;;;;;;9.63;5.72;;;;;;;11.39;100.00;100808.14;1704230;84;21034;-60
2022/04/17 05:48:18;;;;;;;9.38;5.95;;;;;;;11.34;100.00;100805.77;1715403;83;21041;-60
2022/04/17 05:50:46;;;;;;;8.38;5.55;;;;;;;11.56;100.00;100819.05;1719092;83;21025;-60
2022/04/17 05:53:15;;;;;;;7.83;5.62;;;;;;;11.63;100.00;100819.97;1715991;83;21048;-60
2022/04/17 05:55:42;;;;;;;7.30;4.83;;;;;;;11.89;100.00;100815.91;1716447;83;21068;-60
2022/04/17 05:58:11;;;;;;;9.15;5.33;;;;;;;12.25;100.00;100810.83;1718912;83;21072;-60
2022/04/17 06:00:42;;;;;;;8.35;5.47;;;;;;;12.48;100.00;100803.29;1715449;82;21592;-60
2022/04/17 06:03:07;;;;;;;7.00;4.87;;;;;;;12.21;100.00;100819.16;1715281;83;21013;-60
2022/04/17 06:05:36;;;;;;;6.37;4.37;;;;;;;11.90;100.00;100822.73;1718610;83;21082;-59
2022/04/17 06:08:04;;;;;;;7.17;4.75;;;;;;;11.94;100.00;100822.98;1719165;83;21044;-60
2022/04/17 06:10:33;;;;;;;7.78;4.67;;;;;;;12.00;100.00;100820.13;1719140;83;21585;-60
2022/04/17 06:13:02;;;;;;;7.67;5.05;;;;;;;12.33;100.00;100821.64;1718953;83;21111;-59
2022/04/17 06:15:31;;;;;;;7.03;4.87;;;;;;;12.49;100.00;100820.91;1719099;83;21596;-60
2022/04/17 06:17:59;;;;;;;8.25;5.65;;;;;;;12.52;100.00;100822.06;1719113;83;21745;-59
2022/04/17 06:20:27;;;;;;;8.15;5.00;;;;;;;12.47;100.00;100818.41;1719164;83;21069;-60
2022/04/17 06:22:55;;;;;;;9.80;5.40;;;;;;;12.56;100.00;100818.42;1718890;83;21065;-60
2022/04/17 06:25:22;;;;;;;8.50;5.28;;;;;;;12.61;100.00;100821.18;1719018;83;21060;-59
2022/04/17 06:27:51;;;;;;;9.25;5.20;;;;;;;12.68;100.00;100833.80;1718993;82;21072;-59
2022/04/17 06:30:27;;;;;;;7.03;4.97;;;;;;;12.65;100.00;100830.88;1719097;83;21045;-59
2022/04/17 06:32:56;;;;;;;12.43;5.37;;;;;;;13.01;100.00;100833.91;1718662;83;21021;-59
2022/04/17 06:35:23;;;;;;;8.50;5.33;;;;;;;12.88;100.00;100836.27;1719032;83;21119;-59
2022/04/17 06:38:03;;;;;;;7.30;4.92;;;;;;;12.75;100.00;100836.02;1718766;83;21065;-60
2022/04/17 06:40:33;;;;;;;7.12;5.25;;;;;;;12.80;100.00;100843.08;1712912;83;21010;-60
2022/04/17 06:43:10;;;;;;;7.35;5.47;;;;;;;13.16;100.00;100843.97;1696463;84;21051;-59
2022/04/17 06:45:41;;;;;;;8.25;4.95;;;;;;;13.10;100.00;100845.09;1696342;84;21086;-59
2022/04/17 06:48:23;;;;;;;7.42;5.22;;;;;;;12.95;100.00;100845.37;1696218;85;21075;-60
2022/04/17 06:50:54;;;;;;;7.72;5.03;;;;;;;12.81;100.00;100840.89;1696679;84;21031;-59
2022/04/17 06:53:22;;;;;;;9.38;5.47;;;;;;;12.71;100.00;100845.27;1696065;85;21102;-59
2022/04/17 06:55:52;;;;;;;8.00;4.97;;;;;;;13.11;100.00;100839.46;1696442;84;21059;-59
2022/04/17 06:58:20;;;;;;;7.35;4.83;;;;;;;13.35;100.00;100848.61;1695357;85;21575;-59
2022/04/17 07:00:48;;;;;;;7.92;5.28;;;;;;;13.46;100.00;100856.28;1695458;83;21106;-60
2022/04/17 07:03:15;;;;;;;8.10;5.33;;;;;;;13.27;100.00;100855.88;1695632;84;21117;-60
2022/04/17 07:05:45;;;;;;;6.53;4.80;;;;;;;13.55;100.00;100867.00;1695612;84;21078;-60
2022/04/17 07:08:13;;;;;;;8.93;5.22;;;;;;;12.92;100.00;100877.84;1695406;84;21126;-60
2022/04/17 07:10:43;;;;;;;8.13;5.10;;;;;;;12.73;100.00;100877.02;1695478;84;21520;-59
2022/04/17 07:13:14;;;;;;;7.47;4.92;;;;;;;13.03;100.00;100880.72;1695602;85;21133;-59
2022/04/17 07:15:42;;;;;;;7.35;5.30;;;;;;;12.74;100.00;100878.72;1695619;84;21103;-59
2022/04/17 07:18:11;;;;;;;6.55;4.53;;;;;;;12.76;100.00;100883.35;1695550;84;21066;-59
2022/04/17 07:20:38;;;;;;;7.00;4.72;;;;;;;12.33;100.00;100902.95;1695644;85;21114;-60
2022/04/17 07:23:08;;;;;;;7.30;5.03;;;;;;;12.25;100.00;100904.18;1695176;84;21071;-60
2022/04/17 07:25:36;;;;;;;7.20;4.87;;;;;;;12.67;100.00;100883.30;1695598;85;22087;-59
2022/04/17 07:28:05;;;;;;;8.55;4.85;;;;;;;12.34;100.00;100887.00;1695415;84;21058;-59
2022/04/17 07:30:35;;;;;;;6.60;4.78;;;;;;;12.51;100.00;100890.95;1695595;85;21046;-60
2022/04/17 07:33:04;;;;;;;6.37;4.53;;;;;;;12.57;100.00;100884.64;1695549;85;21574;-60
2022/04/17 07:35:32;;;;;;;6.60;4.53;;;;;;;12.70;100.00;100885.77;1695440;84;21054;-60
2022/04/17 07:38:03;;;;;;;7.00;4.90;;;;;;;12.41;100.00;100883.25;1695325;85;21129;-60
2022/04/17 07:40:34;;;;;;;6.92;4.55;;;;;;;12.70;100.00;100872.02;1694331;85;21117;-60
2022/04/17 07:43:04;;;;;;;6.72;4.70;;;;;;;13.36;100.00;100854.61;1693812;85;21066;-60
2022/04/17 07:45:33;;;;;;;6.28;4.92;;;;;;;13.33;100.00;100849.14;1693865;85;21071;-60
2022/04/17 07:48:00;;;;;;;8.05;4.80;;;;;;;13.49;100.00;100857.44;1693794;85;21538;-60
2022/04/17 07:50:31;;;;;;;7.45;4.87;;;;;;;13.15;100.00;100857.78;1693380;85;21110;-60
2022/04/17 07:52:59;;;;;;;6.60;4.92;;;;;;;13.15;100.00;100857.32;1693805;85;21558;-60
2022/04/17 07:55:26;;;;;;;7.05;5.25;;;;;;;13.26;100.00;100856.81;1693828;85;21487;-59
2022/04/17 07:57:56;;;;;;;6.90;4.30;;;;;;;13.44;100.00;100848.59;1693634;85;21055;-60
2022/04/17 08:00:27;;;;;;;5.85;4.03;;;;;;;13.57;100.00;100850.13;1694091;83;21137;-60
2022/04/17 08:03:06;;;;;;;7.70;4.50;;;;;;;13.48;100.00;100854.45;1698748;84;21024;-60
2022/04/17 08:05:25;;;;;;;9.18;5.40;;;;;;;13.34;100.00;100852.56;1698049;84;21545;-59
2022/04/17 08:07:53;;;;;;;8.05;5.40;;;;;;;13.14;100.00;100860.01;1698863;84;21056;-60
2022/04/17 08:10:22;;;;;;;6.67;4.87;;;;;;;12.74;100.00;100858.05;1698649;84;21055;-59
2022/04/17 08:12:51;;;;;;;6.15;4.60;;;;;;;12.63;100.00;100861.97;1685568;84;21038;-60
2022/04/17 08:15:19;;;;;;;6.10;4.40;;;;;;;12.99;100.00;100868.03;1698642;84;21100;-60
2022/04/17 08:17:48;;;;;;;7.08;4.90;;;;;;;12.65;100.00;100871.37;1698578;84;21064;-60
2022/04/17 08:20:16;;;;;;;6.15;4.42;;;;;;;13.04;100.00;100858.32;1695125;84;21064;-59
2022/04/17 08:22:43;;;;;;;5.78;4.03;;;;;;;12.58;100.00;100860.52;1696773;84;21039;-60
2022/04/17 08:25:13;;;;;;;7.53;4.47;;;;;;;12.84;100.00;100863.16;1695586;84;21032;-60
2022/04/17 08:27:48;;;;;;;8.13;4.17;;;;;;;13.33;100.00;100865.13;1695097;84;21513;-60
2022/04/17 08:30:24;;;;;;;7.20;4.85;;;;;;;13.23;100.00;100866.00;1698815;84;21079;-59
2022/04/17 08:32:52;;;;;;;7.37;4.90;;;;;;;13.36;100.00;100861.08;1697010;84;21012;-60
2022/04/17 08:35:22;;;;;;;6.28;4.35;;;;;;;12.80;100.00;100856.00;1699082;84;20976;-60
2022/04/17 08:37:52;;;;;;;7.85;5.25;;;;;;;12.98;100.00;100845.70;1695628;84;21051;-60
2022/04/17 08:40:19;;;;;;;7.53;4.67;;;;;;;13.45;100.00;100852.04;1703008;83;21032;-60
2022/04/17 08:42:49;;;;;;;6.60;4.70;;;;;;;13.71;100.00;100845.08;1706732;84;21560;-60
2022/04/17 08:45:17;;;;;;;6.67;4.35;;;;;;;13.98;100.00;100845.37;1689989;84;21056;-60
2022/04/17 08:47:46;;;;;;;6.35;4.60;;;;;;;14.37;100.00;100846.73;1711317;84;21569;-60
2022/04/17 08:50:18;;;;;;;6.87;4.72;;;;;;;14.45;100.00;100838.55;1710126;84;21577;-60
2022/04/17 08:52:50;;;;;;;5.47;4.00;;;;;;;14.56;100.00;100838.00;1710005;84;21052;-60
2022/04/17 08:55:20;;;;;;;6.30;4.00;;;;;;;14.34;100.00;100835.72;1712150;84;21016;-60
2022/04/17 08:57:48;;;;;;;6.47;3.77;;;;;;;14.32;100.00;100833.67;1710210;84;21059;-60
2022/04/17 09:00:17;;;;;;;5.92;3.70;;;;;;;14.34;100.00;100819.72;1715369;82;21627;-61
2022/04/17 09:02:47;;;;;;;6.87;4.80;;;;;;;14.73;100.00;100822.80;1705766;84;21631;-60
2022/04/17 09:05:18;;;;;;;5.83;3.40;;;;;;;14.76;99.29;100821.31;1712145;84;21056;-60
2022/04/17 09:07:51;;;;;;;4.90;3.40;;;;;;;14.46;99.45;100825.16;1709187;84;21979;-60
2022/04/17 09:10:31;;;;;;;5.90;4.00;;;;;;;14.77;99.36;100816.05;1714007;84;21072;-60
2022/04/17 09:13:03;;;;;;;6.03;4.45;;;;;;;14.78;98.25;100819.47;1705368;84;20997;-60
2022/04/17 09:15:35;;;;;;;7.95;5.20;;;;;;;14.59;99.47;100823.56;1712085;84;21013;-60
2022/04/17 09:18:08;;;;;;;;;;;;;;;14.64;100.00;100826.75;1714806;84;20989;-60
2022/04/17 09:20:36;;;;;;;7.62;6.40;;;;;;;14.90;96.69;100827.02;1715397;83;20433;-60
2022/04/17 09:23:04;;;;;;;13.62;9.33;;;;;;;14.81;98.21;100838.75;1712199;84;21072;-60
2022/04/17 09:25:33;;;;;;;10.35;7.50;;;;;;;14.90;97.78;100833.05;1707185;84;21096;-60
2022/04/17 09:28:08;;;;;;;8.55;6.67;;;;;;;14.94;96.45;100832.39;1707957;84;21072;-60
2022/04/17 09:30:39;;;;;;;13.28;9.45;;;;;;;14.65;97.65;100827.58;1704804;84;21496;-60
2022/04/17 09:33:10;;;;;;;17.48;13.20;;;;;;;14.79;96.57;100832.82;1699561;83;21638;-60
2022/04/17 09:35:39;;;;;;;21.70;14.07;;;;;;;14.45;99.17;100838.55;1695595;85;21034;-60
2022/04/17 09:38:09;;;;;;;9.13;7.28;;;;;;;14.70;99.64;100841.95;1695468;85;21134;-60
2022/04/17 09:40:38;;;;;;;11.78;9.40;;;;;;;14.52;99.54;100835.17;1695967;85;21086;-60
2022/04/17 09:43:15;;;;;;;14.68;12.07;;;;;;;14.60;99.63;100839.03;1696304;85;21527;-60
2022/04/17 09:46:04;;;;;;;16.25;12.53;;;;;;;14.73;98.96;100832.70;1696331;85;21112;-60
2022/04/17 09:48:41;;;;;;;18.67;14.05;;;;;;;14.72;98.48;100832.77;1696331;85;21076;-60
2022/04/17 09:51:27;;;;;;;18.10;12.85;;;;;;;14.56;99.67;100836.70;1696378;85;21103;-60
2022/04/17 09:54:07;;;;;;;16.23;11.90;;;;;;;14.36;100.00;100836.48;1696271;85;21511;-60
2022/04/17 09:56:43;;;;;;;10.40;8.10;;;;;;;14.49;99.48;100825.80;1709165;84;20960;-60
2022/04/17 09:59:21;;;;;;;10.93;9.83;;;;;;;14.57;98.50;100815.05;1706644;83;21040;-59
2022/04/17 10:01:55;;;;;;;12.20;10.90;;;;;;;14.85;98.01;100817.39;1714958;84;21477;-60
2022/04/17 10:04:26;;;;;;;13.30;11.08;;;;;;;14.51;99.06;100820.07;1699538;84;21025;-60
2022/04/17 10:06:56;;;;;;;11.90;10.50;;;;;;;14.41;100.00;100831.39;1716264;84;20953;-60
2022/04/17 10:09:27;;;;;;;18.25;16.00;;;;;;;14.18;100.00;100835.25;1711232;84;21003;-61
2022/04/17 10:11:59;;;;;;;9.63;8.50;;;;;;;13.86;100.00;100839.55;1710124;84;21021;-61
2022/04/17 10:14:31;;;;;;;6.53;5.72;;;;;;;13.70;100.00;100844.68;1715993;83;21056;-60
2022/04/17 10:17:01;;;;;;;9.68;6.97;;;;;;;13.97;100.00;100848.03;1707013;84;21016;-60
2022/04/17 10:19:30;;;;;;;6.53;5.60;;;;;;;14.13;100.00;100851.94;1713009;84;21025;-60
2022/04/17 10:22:01;;;;;;;4.33;3.90;;;;;;;13.79;100.00;100851.98;1712896;84;21005;-61
2022/04/17 10:24:29;;;;;;;4.78;4.35;;;;;;;13.51;100.00;100848.68;1688988;84;21060;-59
2022/04/17 10:26:58;;;;;;;4.28;3.25;;;;;;;13.83;100.00;100850.90;1715584;84;21505;-60
2022/04/17 10:29:42;;;;;;;5.20;3.42;;;;;;;14.20;100.00;100863.19;1713094;84;21088;-60
2022/04/17 10:32:38;;;;;;;4.10;3.70;;;;;;;14.09;100.00;100856.47;1709150;84;21037;-60
2022/04/17 10:35:29;;;;;;;5.72;3.80;;;;;;;14.38;99.21;100854.89;1710689;84;21025;-60
2022/04/17 10:38:28;;;;;;;6.60;4.80;;;;;;;14.15;99.11;100847.52;1711159;84;21573;-60
2022/04/17 10:41:06;;;;;;;6.40;5.30;;;;;;;13.96;100.00;100849.79;1700574;84;21046;-59
2022/04/17 10:43:50;;;;;;;4.12;3.72;;;;;;;13.99;100.00;100850.94;1699667;84;21066;-60
2022/04/17 10:46:22;;;;;;;3.75;3.40;;;;;;;13.90;100.00;100847.99;1700072;84;21527;-60
2022/04/17 10:48:58;;;;;;;4.42;3.37;;;;;;;13.83;100.00;100852.66;1699937;84;21089;-59
2022/04/17 10:51:30;;;;;;;4.10;3.45;;;;;;;13.93;100.00;100854.28;1700059;84;21054;-59
2022/04/17 10:54:13;;;;;;;4.30;3.90;;;;;;;14.04;100.00;100859.75;1700107;84;21019;-60
2022/04/17 10:56:59;;;;;;;5.62;3.83;;;;;;;13.96;100.00;100856.73;1700144;84;21011;-60
2022/04/17 10:59:36;;;;;;;5.35;4.45;;;;;;;14.27;99.89;100858.97;1699653;83;21156;-60
2022/04/17 11:02:11;;;;;;;4.58;3.77;;;;;;;14.13;100.00;100857.12;1700028;84;21030;-59
2022/04/17 11:04:54;;;;;;;5.45;4.20;;;;;;;14.03;99.67;100855.50;1699895;84;21551;-59
2022/04/17 11:07:29;;;;;;;4.30;3.90;;;;;;;14.20;99.98;100853.30;1699946;84;21078;-59
2022/04/17 11:10:15;;;;;;;4.80;3.62;;;;;;;14.31;99.43;100852.23;1699722;84;21050;-59
2022/04/17 11:12:57;;;;;;;3.90;3.45;;;;;;;14.39;98.94;100848.77;1699971;84;21082;-59
2022/04/17 11:15:28;;;;;;;3.87;3.45;;;;;;;14.11;99.03;100841.69;1698603;84;21224;-59
2022/04/17 11:17:59;;;;;;;3.67;3.25;;;;;;;14.07;99.53;100838.89;1698785;84;21526;-59
2022/04/17 11:20:27;;;;;;;3.90;3.50;;;;;;;13.87;99.12;100839.94;1676829;84;21058;-60
2022/04/17 11:22:54;;;;;;;3.25;2.90;;;;;;;13.90;100.00;100837.17;1676434;84;21514;-59
2022/04/17 11:25:23;;;;;;;3.20;2.90;;;;;;;14.06;99.41;100835.08;1698920;84;21573;-59
2022/04/17 11:27:53;;;;;;;7.42;3.60;;;;;;;13.86;99.42;100840.02;1677069;84;21066;-60
2022/04/17 11:30:25;;;;;;;6.85;3.95;;;;;;;13.81;99.93;100840.27;1699072;84;21098;-59
2022/04/17 11:32:53;;;;;;;8.43;5.00;;;;;;;14.21;98.34;100844.59;1699439;84;21021;-60
2022/04/17 11:35:25;;;;;;;6.30;4.42;;;;;;;14.15;98.18;100843.63;1698883;84;21045;-59
2022/04/17 11:38:00;;;;;;;7.40;4.83;;;;;;;13.77;100.00;100835.70;1698675;84;21626;-59
2022/04/17 11:40:32;;;;;;;9.23;5.25;;;;;;;13.99;100.00;100837.14;1698799;84;21072;-60